Time;durP1;ratioP1;P1;durP2;ratioP2;P2;SDS_P1;SDS_P2;PMS_P1;PMS_P2;Temp;Humidity;BMP_temperature;BMP_pressure;BME280_temperature;BME280_humidity;BME280_pressure;Samples;Min_cycle;Max_cycle;Signal;HPM_P1;HPM_P2
2022/02/28 00:00:40;;;;;;;17.75;6.70;;;-0.50;99.90;;;-2.33;100.00;103368.63;4949730;28;20515;-75
2022/02/28 00:03:06;;;;;;;24.90;7.78;;;-0.50;99.90;;;-2.36;100.00;103374.50;4951179;28;22328;-75
2022/02/28 00:05:33;;;;;;;18.38;8.13;;;-0.50;99.90;;;-2.36;100.00;103368.47;4951616;28;20019;-75
2022/02/28 00:07:59;;;;;;;21.70;7.82;;;-0.50;99.90;;;-2.35;100.00;103363.38;4942000;28;20071;-75
2022/02/28 00:10:25;;;;;;;23.88;7.63;;;-0.60;99.90;;;-2.34;100.00;103372.00;4950666;28;20134;-76
2022/02/28 00:12:50;;;;;;;23.55;7.70;;;-0.60;99.90;;;-2.35;100.00;103373.72;4950629;28;20609;-75
2022/02/28 00:15:20;;;;;;;17.75;7.78;;;0.70;99.90;;;-2.33;100.00;103369.50;4951074;28;20501;-75
2022/02/28 00:17:47;;;;;;;29.50;9.30;;;-0.60;99.90;;;-2.32;100.00;103375.56;4932252;28;20034;-74
2022/02/28 00:20:16;;;;;;;25.38;8.05;;;-0.60;99.90;;;-2.32;100.00;103366.09;4941645;28;20054;-74
2022/02/28 00:22:43;;;;;;;20.40;8.32;;;-0.60;99.90;;;-2.39;100.00;103371.78;4974746;28;20027;-74
2022/02/28 00:25:11;;;;;;;21.50;7.90;;;-0.60;99.90;;;-2.44;100.00;103364.63;4950020;28;20055;-74
2022/02/28 00:27:38;;;;;;;20.00;7.30;;;-0.60;99.90;;;-2.49;100.00;103367.84;4949668;28;20055;-74
2022/02/28 00:30:08;;;;;;;21.08;7.78;;;-0.70;99.90;;;-2.50;100.00;103368.69;4943582;28;20118;-74
2022/02/28 00:32:35;;;;;;;20.08;6.85;;;-0.70;99.90;;;-2.49;100.00;103372.13;4950687;28;20039;-74
2022/02/28 00:35:01;;;;;;;20.50;7.40;;;-0.70;99.90;;;-2.49;100.00;103366.97;4942540;28;20031;-74
2022/02/28 00:37:27;;;;;;;25.15;7.70;;;-0.70;99.90;;;-2.51;100.00;103371.16;4974594;28;20033;-74
2022/02/28 00:39:53;;;;;;;30.08;9.10;;;-0.70;99.90;;;-2.54;100.00;103368.44;4951993;28;20996;-74
2022/02/28 00:42:19;;;;;;;24.00;7.90;;;-0.70;99.90;;;-2.54;100.00;103365.88;4950653;28;20396;-74
2022/02/28 00:44:45;;;;;;;23.23;8.55;;;-0.70;99.90;;;-2.53;100.00;103360.78;4951046;28;20074;-74
2022/02/28 00:47:11;;;;;;;22.20;8.82;;;-0.70;99.90;;;-2.55;100.00;103361.50;4951966;28;20514;-74
2022/02/28 00:49:37;;;;;;;17.42;7.90;;;-0.70;99.90;;;-2.53;100.00;103359.88;4932922;28;20039;-74
2022/02/28 00:52:03;;;;;;;23.80;8.00;;;-0.70;99.90;;;-2.59;100.00;103354.41;4939383;28;20492;-74
2022/02/28 00:54:29;;;;;;;22.38;8.25;;;-0.70;99.90;;;-2.63;100.00;103353.41;4949005;28;20527;-74
2022/02/28 00:56:57;;;;;;;20.73;8.55;;;-0.80;99.90;;;-2.63;100.00;103355.09;4950097;28;20031;-75
2022/02/28 00:59:23;;;;;;;28.63;8.55;;;-0.80;99.90;;;-2.66;100.00;103357.50;4932367;28;20037;-75
2022/02/28 01:01:49;;;;;;;17.73;7.78;;;-0.80;99.90;;;-2.67;100.00;103350.59;4948901;28;20027;-75
2022/02/28 01:04:15;;;;;;;24.90;8.35;;;-0.90;99.90;;;-2.72;100.00;103352.91;4935190;28;20054;-75
2022/02/28 01:06:41;;;;;;;23.88;8.15;;;-0.90;99.90;;;-2.72;100.00;103351.25;4951647;28;20118;-75
2022/02/28 01:09:07;;;;;;;18.95;8.35;;;-0.90;99.90;;;-2.72;100.00;103353.81;4963495;28;20394;-75
2022/02/28 01:11:34;;;;;;;21.13;8.20;;;-0.90;99.90;;;-2.76;100.00;103351.91;4950890;28;20031;-75
2022/02/28 01:14:01;;;;;;;21.95;8.25;;;-0.90;99.90;;;-2.78;100.00;103344.91;4949505;28;20494;-75
2022/02/28 01:16:27;;;;;;;22.13;8.23;;;-0.90;99.90;;;-2.80;100.00;103349.09;4943741;28;20118;-75
2022/02/28 01:18:53;;;;;;;19.27;8.48;;;-1.00;99.90;;;-2.82;100.00;103341.28;4942136;28;20113;-75
2022/02/28 01:21:20;;;;;;;23.02;8.85;;;-1.00;99.90;;;-2.80;100.00;103334.50;4948147;28;20077;-75
2022/02/28 01:23:46;;;;;;;23.00;8.38;;;-1.00;99.90;;;-2.82;100.00;103330.06;4970992;28;20026;-75
2022/02/28 01:26:12;;;;;;;23.92;9.10;;;-1.00;99.90;;;-2.82;100.00;103330.06;4950812;28;20118;-76
2022/02/28 01:28:37;;;;;;;27.38;9.10;;;-1.00;99.90;;;-2.81;100.00;103329.25;4932385;28;20074;-75
2022/02/28 01:31:04;;;;;;;22.77;8.95;;;-1.00;99.90;;;-2.80;100.00;103320.72;4973194;28;20051;-75
2022/02/28 01:33:32;;;;;;;25.83;10.05;;;-1.00;99.90;;;-2.80;100.00;103324.19;4957827;28;20038;-75
2022/02/28 01:35:59;;;;;;;31.13;9.70;;;-1.00;99.90;;;-2.82;100.00;103315.47;4951258;28;20118;-75
2022/02/28 01:38:25;;;;;;;24.27;9.93;;;-1.00;99.90;;;-2.83;100.00;103313.72;4952402;28;20034;-75
2022/02/28 01:40:51;;;;;;;25.75;9.30;;;-1.00;99.90;;;-2.84;100.00;103311.94;4951806;28;20093;-75
2022/02/28 01:43:16;;;;;;;27.85;10.38;;;-1.10;99.90;;;-2.84;100.00;103317.09;4952409;28;20027;-75
2022/02/28 01:45:43;;;;;;;27.63;10.15;;;-1.10;99.90;;;-2.85;100.00;103312.78;4977232;28;20104;-75
2022/02/28 01:48:09;;;;;;;24.33;10.15;;;-1.10;99.90;;;-2.84;100.00;103317.09;4976574;28;20093;-75
2022/02/28 01:50:35;;;;;;;27.25;9.80;;;-1.10;99.90;;;-2.86;100.00;103313.56;4954359;28;20623;-75
2022/02/28 01:53:03;;;;;;;24.58;10.18;;;-1.10;99.90;;;-2.90;100.00;103309.06;4952987;28;20045;-74
2022/02/28 01:55:29;;;;;;;35.63;10.85;;;-1.10;99.90;;;-2.91;100.00;103305.59;4947771;28;20054;-75
2022/02/28 01:57:55;;;;;;;33.80;11.35;;;-1.10;99.90;;;-2.93;100.00;103306.34;4961078;28;20114;-76
2022/02/28 02:00:29;;;;;;;24.67;10.40;;;-1.10;99.90;;;-2.95;100.00;103303.66;4968401;28;20107;-75
2022/02/28 02:02:55;;;;;;;28.42;10.60;;;-1.10;99.90;;;-2.96;100.00;103298.44;4936120;28;21852;-75
2022/02/28 02:05:22;;;;;;;24.63;10.23;;;-1.10;99.90;;;-2.97;100.00;103299.25;4934440;28;20039;-76
2022/02/28 02:07:49;;;;;;;27.23;11.32;;;-1.10;99.90;;;-2.97;100.00;103300.13;4952051;28;20046;-76
2022/02/28 02:10:16;;;;;;;26.80;10.80;;;-1.10;99.90;;;-2.95;100.00;103292.47;4953182;28;20131;-75
2022/02/28 02:12:45;;;;;;;26.05;10.05;;;-1.20;99.90;;;-2.99;100.00;103295.72;4975156;28;20027;-75
2022/02/28 02:15:14;;;;;;;24.30;10.15;;;-1.20;99.90;;;-3.02;100.00;103295.53;4934552;28;20037;-76
2022/02/28 02:17:42;;;;;;;33.08;12.07;;;-1.20;99.90;;;-3.03;100.00;103291.19;4942605;28;20029;-75
2022/02/28 02:20:30;;;;;;;24.45;10.23;;;-1.20;99.90;;;-3.04;100.00;103286.88;4977344;28;20034;-75
2022/02/28 02:23:08;;;;;;;29.33;11.82;;;-1.20;99.90;;;-3.04;100.00;103289.44;4953933;28;20657;-75
2022/02/28 02:25:36;;;;;;;28.20;11.35;;;-1.30;99.90;;;-3.12;100.00;103286.47;4950863;28;20059;-75
2022/02/28 02:28:05;;;;;;;30.55;11.40;;;-1.30;99.90;;;-3.13;100.00;103282.13;4953288;28;20031;-76
2022/02/28 02:30:32;;;;;;;29.85;11.90;;;-1.30;99.90;;;-3.13;100.00;103284.72;4977558;28;20051;-76
2022/02/28 02:32:58;;;;;;;35.75;13.27;;;-1.30;99.90;;;-3.11;100.00;103286.56;4991431;28;20042;-75
2022/02/28 02:35:24;;;;;;;30.02;12.60;;;-1.30;99.90;;;-3.13;100.00;103277.84;4933178;28;20066;-75
2022/02/28 02:37:51;;;;;;;36.50;12.70;;;-1.30;99.90;;;-3.15;100.00;103279.47;4964253;28;20065;-75
2022/02/28 02:40:17;;;;;;;35.95;13.43;;;-1.30;99.90;;;-3.15;100.00;103281.16;4951877;28;20039;-75
2022/02/28 02:42:44;;;;;;;36.25;13.65;;;-1.40;99.90;;;-3.17;100.00;103275.94;4951019;28;20076;-76
2022/02/28 02:45:10;;;;;;;34.63;13.18;;;-1.40;99.90;;;-3.20;100.00;103275.75;4975377;28;20050;-75
2022/02/28 02:47:36;;;;;;;36.08;13.20;;;-1.40;99.90;;;-3.24;100.00;103272.94;4976274;28;20039;-75
2022/02/28 02:50:05;;;;;;;38.47;14.80;;;-1.40;99.90;;;-3.29;100.00;103270.13;4958924;28;20046;-76
2022/02/28 02:52:32;;;;;;;36.63;13.65;;;-1.40;99.90;;;-3.28;100.00;103282.22;4974940;28;20403;-75
2022/02/28 02:54:58;;;;;;;42.60;14.93;;;-1.50;99.90;;;-3.27;100.00;103276.25;4967046;28;20117;-75
2022/02/28 02:57:23;;;;;;;34.85;14.73;;;-1.50;99.90;;;-3.28;100.00;103277.09;4953701;28;20062;-76
2022/02/28 02:59:50;;;;;;;40.22;16.13;;;-1.50;99.90;;;-3.26;100.00;103272.91;4964819;28;20104;-75
2022/02/28 03:02:17;;;;;;;34.13;14.30;;;-1.50;99.90;;;-3.28;100.00;103268.44;4976904;28;20116;-76
2022/02/28 03:04:43;;;;;;;39.22;15.27;;;-1.40;99.90;;;-3.24;100.00;103273.84;4949852;28;20027;-75
2022/02/28 03:07:20;;;;;;;37.83;15.48;;;-1.40;99.90;;;-3.26;100.00;103271.97;4942860;28;20042;-75
2022/02/28 03:09:47;;;;;;;39.90;16.15;;;-1.40;99.90;;;-3.25;100.00;103274.66;4952369;28;20057;-75
2022/02/28 03:12:14;;;;;;;47.88;16.80;;;-1.50;99.90;;;-3.25;100.00;103266.91;4950732;28;20019;-75
2022/02/28 03:14:40;;;;;;;44.00;15.65;;;-1.40;99.90;;;-3.28;100.00;103276.16;4950597;28;20491;-75
2022/02/28 03:17:06;;;;;;;36.45;15.23;;;-1.40;99.90;;;-3.25;100.00;103273.78;4960022;28;20033;-75
2022/02/28 03:19:33;;;;;;;39.20;15.23;;;-1.50;99.90;;;-3.25;100.00;103268.63;4953100;28;20035;-75
2022/02/28 03:21:59;;;;;;;45.42;17.23;;;-1.50;99.90;;;-3.25;100.00;103268.63;4952326;28;20049;-75
2022/02/28 03:24:25;;;;;;;39.60;17.33;;;-1.40;99.90;;;-3.29;100.00;103267.56;4951575;28;20043;-75
2022/02/28 03:26:51;;;;;;;44.20;16.25;;;-1.50;99.90;;;-3.31;100.00;103269.19;4933674;28;20046;-75
2022/02/28 03:29:17;;;;;;;49.30;17.83;;;-1.50;99.90;;;-3.29;100.00;103267.56;4941974;28;20808;-76
2022/02/28 03:31:43;;;;;;;49.35;19.08;;;-1.50;99.90;;;-3.25;100.00;103266.91;4973673;28;20061;-75
2022/02/28 03:34:09;;;;;;;45.58;18.08;;;-1.50;99.90;;;-3.27;100.00;103263.38;4973973;28;20125;-75
2022/02/28 03:36:35;;;;;;;44.78;19.48;;;-1.50;99.90;;;-3.25;100.00;103263.47;4952402;28;20027;-75
2022/02/28 03:39:00;;;;;;;51.22;19.38;;;-1.40;99.90;;;-3.24;100.00;103266.13;4974979;28;20042;-75
2022/02/28 03:41:26;;;;;;;55.05;20.50;;;-1.40;99.90;;;-3.22;100.00;103256.75;4952782;28;20030;-75
2022/02/28 03:43:52;;;;;;;49.63;21.10;;;-1.40;99.90;;;-3.22;100.00;103256.75;4949065;28;20092;-75
2022/02/28 03:46:18;;;;;;;54.35;20.20;;;-1.40;99.90;;;-3.23;100.00;103255.00;4949635;28;20094;-75
2022/02/28 03:48:44;;;;;;;62.05;21.90;;;-1.40;99.90;;;-3.23;100.00;103260.16;4975812;28;20015;-75
2022/02/28 03:51:10;;;;;;;55.88;21.60;;;-1.40;99.90;;;-3.28;100.00;103261.63;4972380;28;20055;-75
2022/02/28 03:53:36;;;;;;;52.15;20.10;;;-1.40;99.90;;;-3.30;100.00;103255.50;4948816;28;20520;-75
2022/02/28 03:56:02;;;;;;;47.13;19.35;;;-1.50;99.90;;;-3.36;100.00;103266.38;4953623;28;20035;-75
2022/02/28 03:58:28;;;;;;;49.95;20.83;;;-1.50;99.90;;;-3.35;100.00;103265.56;4953395;28;20043;-75
2022/02/28 04:00:53;;;;;;;63.28;22.10;;;-1.50;99.90;;;-3.32;100.00;103270.00;4949363;28;20094;-76
2022/02/28 04:03:19;;;;;;;62.25;21.75;;;-1.50;99.90;;;-3.30;100.00;103269.25;4959931;28;20041;-75
2022/02/28 04:05:45;;;;;;;64.20;22.95;;;-1.50;99.90;;;-3.31;100.00;103271.75;4951581;28;20031;-75
2022/02/28 04:08:11;;;;;;;67.78;23.33;;;-1.50;99.90;;;-3.32;100.00;103264.84;4972893;28;20038;-75
2022/02/28 04:10:37;;;;;;;59.75;22.98;;;-1.50;99.90;;;-3.32;100.00;103262.28;4950052;28;20094;-74
2022/02/28 04:13:03;;;;;;;64.95;24.33;;;-1.60;99.90;;;-3.33;100.00;103268.22;4975986;28;20031;-75
2022/02/28 04:15:32;;;;;;;73.35;26.77;;;-1.60;99.90;;;-3.35;100.00;103267.25;4949691;28;20041;-76
2022/02/28 04:17:58;;;;;;;72.28;26.20;;;-1.60;99.90;;;-3.39;100.00;103267.88;4949470;28;20023;-76
2022/02/28 04:20:24;;;;;;;68.95;24.45;;;-1.60;99.90;;;-3.39;100.00;103273.03;4975731;28;20625;-76
2022/02/28 04:22:49;;;;;;;81.75;25.98;;;-1.60;99.90;;;-3.41;100.00;103264.34;4950072;28;20027;-75
2022/02/28 04:25:16;;;;;;;73.68;25.98;;;-1.70;99.90;;;-3.44;100.00;103266.78;4949214;28;20118;-75
2022/02/28 04:27:42;;;;;;;82.25;28.65;;;-1.70;99.90;;;-3.48;100.00;103259.69;4959217;28;20399;-75
2022/02/28 04:30:10;;;;;;;89.72;30.25;;;-1.70;99.90;;;-3.48;100.00;103267.41;4949610;28;20043;-74
2022/02/28 04:32:35;;;;;;;85.10;31.42;;;-1.70;99.90;;;-3.45;100.00;103253.03;4973927;28;20110;-75
2022/02/28 04:35:02;;;;;;;90.78;32.42;;;-1.70;99.90;;;-3.42;100.00;103254.88;4953143;28;20031;-76
2022/02/28 04:37:28;;;;;;;85.97;33.22;;;-1.60;99.90;;;-3.39;100.00;103252.44;4932716;28;20042;-75
2022/02/28 04:39:54;;;;;;;88.15;31.58;;;-1.60;99.90;;;-3.33;100.00;103265.63;4950807;28;20058;-75
2022/02/28 04:42:21;;;;;;;88.30;32.78;;;-1.60;99.90;;;-3.35;100.00;103265.56;4949923;28;20491;-75
2022/02/28 04:44:48;;;;;;;88.15;31.77;;;-1.50;99.90;;;-3.33;100.00;103257.91;4957105;28;20034;-75
2022/02/28 04:47:14;;;;;;;89.38;30.58;;;-1.60;99.90;;;-3.32;100.00;103258.00;4949057;28;20403;-76
2022/02/28 04:49:40;;;;;;;87.60;30.98;;;-1.60;99.90;;;-3.33;100.00;103266.50;4951438;28;20046;-76
2022/02/28 04:52:06;;;;;;;86.68;31.38;;;-1.60;99.90;;;-3.38;100.00;103257.69;4950469;28;20078;-75
2022/02/28 04:54:32;;;;;;;86.53;31.80;;;-1.60;99.90;;;-3.37;100.00;103255.97;4975089;28;20035;-75
2022/02/28 04:56:58;;;;;;;82.00;31.27;;;-1.60;99.90;;;-3.43;100.00;103256.56;4975179;28;20031;-74
2022/02/28 04:59:24;;;;;;;94.82;33.08;;;-1.70;99.90;;;-3.49;100.00;103247.63;4973609;28;20023;-75
2022/02/28 05:01:50;;;;;;;106.65;36.47;;;-1.70;99.90;;;-3.56;100.00;103249.91;4947277;28;20062;-75
2022/02/28 05:04:16;;;;;;;116.40;37.95;;;-1.70;99.90;;;-3.56;100.00;103247.31;4952215;28;20486;-75
2022/02/28 05:06:42;;;;;;;111.60;38.10;;;-1.70;99.90;;;-3.53;100.00;103250.03;4949491;28;20031;-76
2022/02/28 05:09:08;;;;;;;111.30;42.13;;;-1.70;99.90;;;-3.54;100.00;103248.28;4949565;28;20034;-76
2022/02/28 05:11:33;;;;;;;99.45;35.83;;;-1.80;99.90;;;-3.64;100.00;103250.31;4956554;28;20054;-75
2022/02/28 05:13:59;;;;;;;107.95;38.60;;;-1.80;99.90;;;-3.62;100.00;103252.16;4954710;28;20567;-75
2022/02/28 05:16:26;;;;;;;99.82;37.63;;;-1.80;99.90;;;-3.61;100.00;103247.88;4976932;28;20023;-75
2022/02/28 05:18:52;;;;;;;95.07;36.38;;;-1.80;99.90;;;-3.65;100.00;103254.56;4953546;28;20086;-75
2022/02/28 05:21:18;;;;;;;99.38;36.90;;;-1.80;99.90;;;-3.74;100.00;103259.22;4955865;28;20035;-75
2022/02/28 05:23:44;;;;;;;89.03;34.70;;;-1.80;99.90;;;-3.70;100.00;103261.16;4953082;28;21277;-75
2022/02/28 05:26:09;;;;;;;97.32;37.35;;;-1.80;99.90;;;-3.70;100.00;103268.88;4952646;28;20483;-75
2022/02/28 05:28:35;;;;;;;97.68;37.25;;;-1.90;99.90;;;-3.76;100.00;103271.13;4979307;28;20035;-76
2022/02/28 05:31:02;;;;;;;90.57;33.42;;;-1.90;99.90;;;-3.78;100.00;103267.56;4952638;28;20079;-75
2022/02/28 05:33:28;;;;;;;94.03;32.72;;;-2.00;99.90;;;-3.84;100.00;103267.28;4953811;28;20514;-75
2022/02/28 05:35:54;;;;;;;107.63;41.60;;;-2.00;99.90;;;-3.96;100.00;103263.22;4978078;28;20027;-75
2022/02/28 05:38:20;;;;;;;93.38;34.03;;;-2.10;99.90;;;-3.95;100.00;103262.44;4957183;28;20037;-75
2022/02/28 05:40:46;;;;;;;84.40;31.50;;;-2.10;99.90;;;-3.98;100.00;103262.25;4960578;28;20412;-75
2022/02/28 05:43:12;;;;;;;90.45;32.30;;;-2.10;99.90;;;-4.00;100.00;103261.28;4976785;28;20038;-75
2022/02/28 05:45:38;;;;;;;94.15;35.20;;;-2.10;99.90;;;-4.02;100.00;103262.00;4951261;28;20046;-75
2022/02/28 05:48:06;;;;;;;90.45;32.90;;;-2.20;99.90;;;-4.04;100.00;103268.75;4952918;28;20031;-75
2022/02/28 05:50:32;;;;;;;87.05;31.73;;;-2.20;99.90;;;-4.10;100.00;103263.28;4953654;28;20503;-75
2022/02/28 05:53:00;;;;;;;95.03;34.50;;;-2.20;99.90;;;-4.18;100.00;103265.44;4954339;28;20086;-75
2022/02/28 05:55:28;;;;;;;81.68;29.52;;;-2.30;99.90;;;-4.18;100.00;103278.31;4952876;28;20034;-75
2022/02/28 05:57:55;;;;;;;86.93;30.15;;;-2.30;99.90;;;-4.15;100.00;103273.31;4952140;28;20031;-76
2022/02/28 06:00:22;;;;;;;98.63;34.22;;;-2.30;99.90;;;-4.22;100.00;103272.09;4952331;28;20101;-75
2022/02/28 06:02:50;;;;;;;86.75;34.08;;;-2.40;99.90;;;-4.19;100.00;103273.94;4975323;28;20035;-75
2022/02/28 06:05:16;;;;;;;87.15;33.13;;;-2.30;99.90;;;-4.14;100.00;103277.69;4955023;28;20483;-75
2022/02/28 06:07:42;;;;;;;86.07;34.75;;;-2.30;99.90;;;-4.18;100.00;103268.03;4974383;28;20026;-75
2022/02/28 06:10:08;;;;;;;81.82;30.38;;;-2.30;99.90;;;-4.08;100.00;103279.69;4953572;28;20034;-75
2022/02/28 06:12:34;;;;;;;72.40;29.98;;;-2.30;99.90;;;-4.16;100.00;103281.84;4954136;28;20039;-75
2022/02/28 06:15:00;;;;;;;66.38;27.08;;;-2.30;99.90;;;-4.17;100.00;103287.78;4954004;28;20035;-75
2022/02/28 06:17:26;;;;;;;67.93;27.38;;;-2.30;99.90;;;-4.08;100.00;103283.16;4953773;28;20027;-76
2022/02/28 06:19:52;;;;;;;76.45;30.08;;;-2.30;99.90;;;-4.05;100.00;103280.75;4976433;28;20193;-76
2022/02/28 06:22:18;;;;;;;74.80;28.20;;;-2.30;99.90;;;-3.99;100.00;103288.81;4950799;28;20133;-75
2022/02/28 06:24:44;;;;;;;64.30;26.70;;;-2.30;99.90;;;-3.90;100.00;103287.53;4966803;28;20511;-75
2022/02/28 06:27:09;;;;;;;63.67;26.80;;;-2.20;99.90;;;-3.85;100.00;103293.81;4956059;28;20031;-75
2022/02/28 06:29:35;;;;;;;69.28;28.10;;;-2.20;99.90;;;-3.78;100.00;103293.31;4974328;28;20051;-75
2022/02/28 06:32:01;;;;;;;71.65;29.23;;;-2.10;99.90;;;-3.14;100.00;103288.06;4975959;28;20065;-76
2022/02/28 06:34:31;;;;;;;64.55;27.33;;;-1.90;99.90;;;-2.37;100.00;103284.13;4954705;28;20444;-76
2022/02/28 06:36:59;;;;;;;71.07;29.80;;;-1.70;99.90;;;-2.39;100.00;103293.50;4952969;28;20034;-75
2022/02/28 06:39:26;;;;;;;75.57;30.45;;;-1.50;99.90;;;-1.75;100.00;103287.84;4973673;28;20373;-76
2022/02/28 06:41:54;;;;;;;70.95;28.88;;;-1.30;99.90;;;-0.92;100.00;103282.00;4976514;28;20031;-75
2022/02/28 06:44:20;;;;;;;62.45;25.83;;;-1.00;99.90;;;-1.35;100.00;103289.63;4986339;28;20059;-75
2022/02/28 06:46:46;;;;;;;72.85;28.27;;;-0.90;99.90;;;-0.63;100.00;103290.06;4958457;28;20506;-76
2022/02/28 06:49:12;;;;;;;58.35;22.95;;;-0.60;99.90;;;1.32;100.00;103280.75;4951655;28;20027;-75
2022/02/28 06:51:38;;;;;;;62.95;27.60;;;0.20;99.90;;;5.00;91.44;103269.97;4975299;28;20125;-75
2022/02/28 06:54:03;;;;;;;59.63;27.02;;;1.30;99.90;;;8.38;74.95;103266.47;4951142;28;20104;-76
2022/02/28 06:56:30;;;;;;;43.03;19.95;;;2.60;99.90;;;8.56;62.86;103283.19;4951588;28;20400;-75
2022/02/28 06:58:56;;;;;;;41.15;20.60;;;3.70;99.90;;;10.39;57.35;103285.66;4952607;28;20376;-76
2022/02/28 07:01:22;;;;;;;40.45;20.65;;;4.70;99.90;;;11.11;53.57;103331.78;4959882;28;20027;-76
2022/02/28 07:03:48;;;;;;;49.15;23.70;;;5.50;99.90;;;11.94;50.81;103355.66;4965791;28;20080;-75
2022/02/28 07:06:22;;;;;;;41.65;22.00;;;6.40;99.90;;;13.26;48.41;103364.53;4951857;28;20039;-76
2022/02/28 07:08:49;;;;;;;39.67;19.33;;;6.90;99.90;;;12.07;47.11;103367.88;4949410;28;20102;-76
2022/02/28 07:11:16;;;;;;;48.58;22.73;;;7.30;99.90;;;12.99;46.21;103392.25;4966763;28;20084;-75
2022/02/28 07:13:42;;;;;;;32.13;16.80;;;7.40;99.90;;;11.91;46.73;103437.56;4950014;28;20038;-74
2022/02/28 07:16:08;;;;;;;30.48;18.63;;;7.20;99.90;;;11.38;47.35;103434.44;4936170;28;20038;-74
2022/02/28 07:18:33;;;;;;;31.58;16.73;;;7.50;99.90;;;12.14;46.79;103441.75;4942667;28;20041;-76
2022/02/28 07:21:00;;;;;;;22.75;10.45;;;7.80;99.90;;;11.68;45.34;103467.66;4952476;28;20098;-73
2022/02/28 07:23:26;;;;;;;33.40;18.20;;;7.70;99.90;;;12.46;46.18;103470.47;4942359;28;20026;-74
2022/02/28 07:25:52;;;;;;;28.98;17.00;;;8.10;99.90;;;13.34;44.58;103494.09;4958180;28;20037;-74
2022/02/28 07:28:18;;;;;;;29.85;16.90;;;8.50;99.90;;;13.00;44.09;103467.19;4957997;28;20039;-74
2022/02/28 07:30:44;;;;;;;33.08;20.13;;;8.80;99.90;;;13.52;43.33;103477.97;4943708;28;20042;-73
2022/02/28 07:33:09;;;;;;;29.08;16.73;;;9.00;99.90;;;13.29;43.83;103483.59;4957064;28;20037;-73
2022/02/28 07:35:36;;;;;;;30.42;18.48;;;9.60;99.90;;;14.04;42.52;103576.91;4951661;28;20030;-74
2022/02/28 07:38:03;;;;;;;22.75;14.10;;;9.70;99.90;;;13.17;41.98;103538.41;4956411;28;20027;-73
2022/02/28 07:40:29;;;;;;;25.15;13.70;;;10.00;99.90;;;13.36;42.07;103520.53;4939835;28;20106;-73
2022/02/28 07:42:55;;;;;;;20.00;10.80;;;9.90;99.90;;;12.00;43.15;103577.44;4975166;28;20928;-73
2022/02/28 07:45:24;;;;;;;24.90;16.20;;;9.80;99.90;;;13.40;42.45;103509.03;4973364;28;20500;-73
2022/02/28 07:47:50;;;;;;;27.25;16.83;;;9.90;99.90;;;12.66;43.32;103539.00;4949262;28;20034;-73
2022/02/28 07:50:16;;;;;;;27.05;16.48;;;10.10;99.90;;;12.96;42.00;103518.38;4943797;28;20046;-74
2022/02/28 07:52:42;;;;;;;26.13;15.20;;;10.30;99.90;;;12.68;42.94;103540.72;4941761;28;20039;-73
2022/02/28 07:55:08;;;;;;;35.85;21.70;;;10.60;99.90;;;12.86;41.95;103546.72;4935945;28;20495;-73
2022/02/28 07:57:35;;;;;;;32.17;19.60;;;10.80;99.90;;;12.59;43.63;103543.47;4949021;28;20112;-73
2022/02/28 08:00:05;;;;;;;40.30;27.38;;;10.70;99.90;;;12.36;44.39;103558.69;4934969;28;20122;-73
2022/02/28 08:02:31;;;;;;;47.72;28.77;;;10.90;99.90;;;12.81;44.84;103553.81;4952989;28;20396;-74
2022/02/28 08:04:57;;;;;;;35.67;20.27;;;11.00;99.90;;;11.45;44.75;103565.41;4957197;28;20046;-73
2022/02/28 08:07:22;;;;;;;35.35;20.40;;;10.80;99.90;;;11.58;46.25;103562.72;4952796;28;20031;-73
2022/02/28 08:09:48;;;;;;;20.75;13.93;;;10.50;99.90;;;10.88;47.92;103568.28;4951269;28;20046;-73
2022/02/28 08:12:14;;;;;;;22.50;13.80;;;10.20;99.90;;;9.40;49.40;103569.03;4965776;28;20061;-73
2022/02/28 08:14:41;;;;;;;25.42;14.07;;;9.80;99.90;;;9.48;51.52;103567.31;4944509;28;20030;-73
2022/02/28 08:17:08;;;;;;;25.25;14.95;;;9.70;99.90;;;8.52;51.62;103583.44;4925922;28;20030;-74
2022/02/28 08:19:34;;;;;;;34.78;15.50;;;9.00;99.90;;;5.97;56.17;103596.66;4939643;28;20587;-73
2022/02/28 08:21:59;;;;;;;45.20;16.00;;;7.60;99.90;;;5.08;59.66;103587.00;4942065;28;20034;-74
2022/02/28 08:24:25;;;;;;;95.80;17.00;;;6.90;99.90;;;4.38;63.14;103581.00;4949806;28;20031;-73
2022/02/28 08:26:51;;;;;;;49.97;17.77;;;5.90;99.90;;;2.95;65.97;103575.31;4967554;28;20035;-75
2022/02/28 08:29:17;;;;;;;26.40;9.35;;;5.20;99.90;;;2.09;68.09;103582.94;4949548;28;20050;-73
2022/02/28 08:31:43;;;;;;;53.45;18.77;;;4.50;99.90;;;2.09;70.30;103572.53;4950620;28;20066;-75
2022/02/28 08:34:09;;;;;;;56.58;17.85;;;4.00;99.90;;;1.68;72.28;103569.38;4952677;28;20483;-72
2022/02/28 08:36:35;;;;;;;47.47;14.30;;;3.30;99.90;;;0.71;75.23;103572.63;4950714;28;20039;-75
2022/02/28 08:39:04;;;;;;;32.38;15.73;;;3.00;99.90;;;0.95;77.13;103564.91;4952585;28;20054;-76
2022/02/28 08:41:30;;;;;;;46.45;17.05;;;2.70;99.90;;;0.85;78.51;103560.22;4973517;28;20156;-75
2022/02/28 08:43:56;;;;;;;31.55;9.30;;;2.60;99.90;;;0.35;80.46;103575.53;4958253;28;20023;-75
2022/02/28 08:46:22;;;;;;;76.20;16.73;;;2.20;99.90;;;0.20;82.43;103568.00;4954849;28;20082;-76
2022/02/28 08:48:48;;;;;;;72.18;16.73;;;2.00;99.90;;;0.10;83.46;103574.47;4977516;28;20134;-76
2022/02/28 08:51:14;;;;;;;39.63;16.15;;;1.80;99.90;;;-0.06;84.82;103566.88;4960127;28;20042;-77
2022/02/28 08:53:40;;;;;;;46.97;16.67;;;1.80;99.90;;;0.20;86.09;103555.91;4956904;28;20510;-77
2022/02/28 08:56:06;;;;;;;37.05;16.27;;;1.90;99.90;;;0.45;86.32;103559.50;4952518;28;20095;-76
2022/02/28 08:58:32;;;;;;;39.95;16.08;;;1.80;99.90;;;0.15;86.82;103552.25;4947801;28;20043;-76
2022/02/28 09:00:58;;;;;;;35.08;15.88;;;1.80;99.90;;;0.51;87.66;103548.50;4945132;28;20053;-76
2022/02/28 09:03:25;;;;;;;39.63;16.25;;;1.90;99.90;;;0.26;87.28;103544.94;4918115;28;20034;-77
2022/02/28 09:05:51;;;;;;;35.63;15.80;;;1.90;99.90;;;0.42;87.84;103541.25;4970235;28;20058;-76
2022/02/28 09:08:17;;;;;;;35.28;15.57;;;1.90;99.90;;;0.50;87.73;103532.06;4935092;28;20759;-76
2022/02/28 09:10:42;;;;;;;38.72;17.75;;;2.10;99.90;;;0.90;87.18;103525.81;4963604;28;20097;-76
2022/02/28 09:13:11;;;;;;;40.28;15.57;;;2.20;99.90;;;0.85;86.39;103516.13;4947796;28;20177;-76
2022/02/28 09:15:37;;;;;;;34.97;14.45;;;2.10;99.90;;;0.34;86.36;103514.13;4967793;28;20030;-76
2022/02/28 09:18:07;;;;;;;31.23;15.38;;;1.90;99.90;;;0.39;87.42;103507.44;4951690;28;20053;-75
2022/02/28 09:20:36;;;;;;;36.15;17.20;;;2.00;99.90;;;0.75;87.77;103501.91;4930310;28;20118;-74
2022/02/28 09:23:03;;;;;;;38.35;15.50;;;2.10;99.90;;;0.80;87.55;103496.06;4929789;28;20463;-79
2022/02/28 09:25:34;;;;;;;53.78;17.92;;;2.20;99.90;;;0.91;87.30;103496.47;4940259;28;20026;-76
2022/02/28 09:28:06;;;;;;;44.92;17.17;;;2.30;99.90;;;0.71;87.42;103500.00;4935551;28;20072;-76
2022/02/28 09:30:35;;;;;;;48.22;17.85;;;2.20;99.90;;;0.48;87.92;103496.53;4956201;28;20047;-75
2022/02/28 09:33:03;;;;;;;41.28;17.73;;;2.20;99.90;;;0.82;88.16;103490.94;4933772;28;20117;-77
2022/02/28 09:35:29;;;;;;;43.42;18.42;;;2.30;99.90;;;0.76;88.75;103488.13;4929142;28;20028;-79
2022/02/28 09:37:56;;;;;;;44.97;18.48;;;2.20;99.90;;;0.73;88.59;103493.19;4919091;28;20395;-75
2022/02/28 09:40:34;;;;;;;55.13;18.98;;;2.00;99.90;;;0.22;90.00;103498.97;4953006;28;20031;-75
2022/02/28 09:43:03;;;;;;;59.22;17.90;;;1.90;99.90;;;0.01;91.26;103498.97;4954808;28;20023;-77
2022/02/28 09:45:31;;;;;;;21.23;7.97;;;1.60;99.90;;;-0.24;92.61;103499.63;4945845;28;20042;-77
2022/02/28 09:47:57;;;;;;;56.17;26.63;;;1.60;99.90;;;-0.04;93.54;103488.41;4930386;28;20080;-77
2022/02/28 09:50:25;;;;;;;48.03;19.05;;;1.70;99.90;;;0.16;94.42;103485.75;4977852;28;20046;-78
2022/02/28 09:52:52;;;;;;;52.90;23.05;;;1.70;99.90;;;-0.02;94.39;103488.50;4953649;28;20109;-77
2022/02/28 09:55:20;;;;;;;69.40;19.38;;;1.80;99.90;;;0.26;94.55;103485.31;4922379;28;20031;-78
2022/02/28 09:57:50;;;;;;;55.08;17.30;;;1.90;99.90;;;0.11;94.26;103484.66;4968330;28;20050;-77